Time;durP1;ratioP1;P1;durP2;ratioP2;P2;SDS_P1;SDS_P2;PMS_P1;PMS_P2;Temp;Humidity;BMP_temperature;BMP_pressure;BME280_temperature;BME280_humidity;BME280_pressure;Samples;Min_cycle;Max_cycle;Signal;HPM_P1;HPM_P2
2022/04/21 00:01:26;;;;;;;8.50;7.22;;;10.10;99.90;;;;;;5034408;28;20116;-73
2022/04/21 00:03:51;;;;;;;12.95;6.65;;;10.10;99.90;;;;;;5033139;28;20033;-72
2022/04/21 00:06:17;;;;;;;12.48;7.50;;;10.10;99.90;;;;;;5033819;28;20473;-73
2022/04/21 00:08:42;;;;;;;13.52;7.20;;;10.10;99.90;;;;;;5034301;28;20036;-72
2022/04/21 00:11:08;;;;;;;10.70;7.20;;;10.10;99.90;;;;;;5033114;28;20032;-72
2022/04/21 00:13:35;;;;;;;11.18;7.10;;;10.00;99.90;;;;;;5034193;28;20025;-73
2022/04/21 00:16:01;;;;;;;8.00;7.20;;;10.00;99.90;;;;;;5033658;28;20034;-74
2022/04/21 00:18:26;;;;;;;10.50;7.38;;;9.90;99.90;;;;;;5033314;28;20021;-73
2022/04/21 00:20:52;;;;;;;8.32;7.53;;;9.90;99.90;;;;;;5033663;28;20053;-74
2022/04/21 00:23:26;;;;;;;8.48;7.20;;;9.90;99.90;;;;;;5034010;28;20592;-74
2022/04/21 00:25:53;;;;;;;7.80;7.10;;;9.90;99.90;;;;;;5033037;28;20031;-73
2022/04/21 00:28:19;;;;;;;11.82;7.03;;;9.90;99.90;;;;;;5034003;28;20034;-74
2022/04/21 00:30:45;;;;;;;9.10;7.28;;;9.80;99.90;;;;;;5032519;28;20025;-72
2022/04/21 00:33:11;;;;;;;7.53;6.72;;;9.80;99.90;;;;;;5032785;28;20025;-72
2022/04/21 00:35:36;;;;;;;8.50;7.70;;;9.80;99.90;;;;;;5033863;28;20034;-72
2022/04/21 00:38:02;;;;;;;8.85;7.47;;;9.80;99.90;;;;;;5032587;28;20036;-72
2022/04/21 00:40:29;;;;;;;7.60;6.82;;;9.80;99.90;;;;;;5033671;28;20034;-72
2022/04/21 00:42:56;;;;;;;8.25;6.97;;;9.90;99.90;;;;;;5033346;28;20037;-72
2022/04/21 00:45:22;;;;;;;7.88;7.18;;;9.80;99.90;;;;;;5032789;28;20462;-73
2022/04/21 00:47:49;;;;;;;8.52;6.97;;;9.70;99.90;;;;;;5033036;28;20124;-72
2022/04/21 00:50:28;;;;;;;11.98;7.20;;;9.80;99.90;;;;;;5033581;28;20375;-72
2022/04/21 00:52:55;;;;;;;7.93;7.13;;;9.80;99.90;;;;;;5032479;28;20085;-72
2022/04/21 00:55:21;;;;;;;7.75;6.20;;;9.80;99.90;;;;;;5033194;28;20049;-73
2022/04/21 00:57:48;;;;;;;10.68;7.35;;;9.70;99.90;;;;;;5033158;28;20111;-73
2022/04/21 01:00:20;;;;;;;7.63;6.90;;;9.70;99.90;;;;;;5020269;28;20034;-73
2022/04/21 01:02:46;;;;;;;10.30;6.95;;;9.70;99.90;;;;;;5013496;28;20505;-73
2022/04/21 01:05:35;;;;;;;9.60;6.82;;;9.70;99.90;;;;;;5013149;28;20039;-72
2022/04/21 01:08:08;;;;;;;6.97;6.28;;;9.70;99.90;;;;;;5012566;28;20374;-72
2022/04/21 01:10:38;;;;;;;7.93;7.03;;;9.60;99.90;;;;;;5013402;28;20113;-72
2022/04/21 01:13:06;;;;;;;10.75;7.22;;;9.60;99.90;;;;;;5012408;28;20022;-72
2022/04/21 01:15:31;;;;;;;8.85;7.15;;;9.60;99.90;;;;;;5013323;28;20033;-72
2022/04/21 01:17:57;;;;;;;8.95;7.50;;;9.60;99.90;;;;;;5012115;28;20044;-73
2022/04/21 01:20:24;;;;;;;12.18;7.22;;;9.60;99.90;;;;;;5012394;28;20340;-73
2022/04/21 01:22:51;;;;;;;9.30;7.57;;;9.50;99.90;;;;;;5012877;28;20114;-73
2022/04/21 01:25:16;;;;;;;7.70;6.43;;;9.40;99.90;;;;;;5013089;28;20101;-73
2022/04/21 01:27:43;;;;;;;6.88;6.18;;;9.40;99.90;;;;;;5012900;28;20110;-72
2022/04/21 01:30:11;;;;;;;10.32;7.15;;;9.50;99.90;;;;;;5013522;28;20084;-72
2022/04/21 01:32:37;;;;;;;13.98;7.03;;;9.40;99.90;;;;;;5013218;28;20080;-72
2022/04/21 01:35:08;;;;;;;9.40;7.60;;;9.40;99.90;;;;;;5012230;28;20371;-72
2022/04/21 01:43:03;;;;;;;11.10;7.47;;;9.30;99.90;;;;;;5012277;28;20036;-72
2022/04/21 01:45:29;;;;;;;8.43;7.55;;;9.30;99.90;;;;;;5012725;28;20085;-72
2022/04/21 01:47:56;;;;;;;7.22;6.53;;;9.30;99.90;;;;;;5012420;28;20034;-72
2022/04/21 01:50:23;;;;;;;9.05;7.40;;;9.30;99.90;;;;;;5011875;28;20470;-72
2022/04/21 01:52:48;;;;;;;12.50;6.90;;;9.30;99.90;;;;;;5012597;28;20038;-72
2022/04/21 01:55:14;;;;;;;10.02;7.60;;;9.20;99.90;;;;;;5011672;28;20042;-72
2022/04/21 01:57:39;;;;;;;7.80;7.03;;;9.20;99.90;;;;;;5012471;28;20034;-72
2022/04/21 02:00:06;;;;;;;12.43;7.93;;;9.20;99.90;;;;;;5012147;28;20018;-72
2022/04/21 02:02:32;;;;;;;8.95;7.25;;;9.20;99.90;;;;;;5011622;28;20065;-73
2022/04/21 02:04:59;;;;;;;11.77;7.60;;;9.30;99.90;;;;;;5012142;28;20018;-72
2022/04/21 02:07:25;;;;;;;8.95;7.07;;;9.20;99.90;;;;;;5012642;28;20075;-72
2022/04/21 02:09:51;;;;;;;8.68;7.50;;;9.20;99.90;;;;;;5011628;28;20436;-73
2022/04/21 02:12:17;;;;;;;11.35;6.88;;;9.20;99.90;;;;;;5012506;28;20026;-72
2022/04/21 02:14:43;;;;;;;14.68;8.32;;;9.20;99.90;;;;;;5012460;28;20037;-74
2022/04/21 02:17:08;;;;;;;9.27;7.70;;;9.20;99.90;;;;;;5011338;28;20394;-72
2022/04/21 02:19:34;;;;;;;8.75;7.88;;;9.10;99.90;;;;;;5012321;28;20408;-73
2022/04/21 02:22:00;;;;;;;8.43;7.63;;;9.10;99.90;;;;;;5012188;28;20034;-73
2022/04/21 02:24:25;;;;;;;9.65;7.40;;;9.00;99.90;;;;;;5011860;28;20029;-73
2022/04/21 02:26:51;;;;;;;9.95;7.07;;;9.00;99.90;;;;;;5011822;28;20138;-72
2022/04/21 02:29:19;;;;;;;8.65;7.35;;;9.00;99.90;;;;;;5013605;28;20022;-72
2022/04/21 02:31:45;;;;;;;10.45;7.63;;;9.00;99.90;;;;;;5015595;28;20034;-72
2022/04/21 02:34:10;;;;;;;9.38;7.90;;;9.00;99.90;;;;;;5015887;28;20052;-72
2022/04/21 02:36:36;;;;;;;10.38;7.82;;;8.90;99.90;;;;;;5016286;28;20137;-73
2022/04/21 02:39:02;;;;;;;8.20;7.38;;;8.90;99.90;;;;;;5015166;28;20030;-74
2022/04/21 02:41:27;;;;;;;10.05;7.57;;;8.80;99.90;;;;;;5016138;28;20033;-72
2022/04/21 02:43:53;;;;;;;14.10;7.65;;;8.80;99.90;;;;;;5015845;28;20386;-73
2022/04/21 02:46:27;;;;;;;10.38;7.88;;;8.80;99.90;;;;;;5015254;28;20026;-73
2022/04/21 02:48:56;;;;;;;14.35;7.50;;;8.70;99.90;;;;;;5015952;28;20030;-72
2022/04/21 02:51:22;;;;;;;8.68;7.78;;;8.60;99.90;;;;;;5015786;28;20076;-72
2022/04/21 02:59:15;;;;;;;8.68;7.28;;;8.80;99.90;;;;;;5015186;28;20091;-72
2022/04/21 03:01:41;;;;;;;10.07;7.82;;;8.70;99.90;;;;;;5016069;28;20489;-72
2022/04/21 03:04:07;;;;;;;10.40;6.85;;;8.60;99.90;;;;;;5015520;28;20464;-72
2022/04/21 03:06:32;;;;;;;9.32;6.72;;;8.70;99.90;;;;;;5014974;28;20030;-72
2022/04/21 03:08:58;;;;;;;9.18;7.25;;;8.60;99.90;;;;;;5015270;28;20042;-72
2022/04/21 03:11:23;;;;;;;8.45;7.55;;;8.70;99.90;;;;;;5014222;28;20493;-72
2022/04/21 03:13:49;;;;;;;10.18;6.75;;;8.60;99.90;;;;;;5014697;28;20049;-73
2022/04/21 03:16:14;;;;;;;10.85;7.90;;;8.60;99.90;;;;;;5015439;28;20036;-73
2022/04/21 03:18:42;;;;;;;17.45;7.20;;;8.60;99.90;;;;;;5015458;28;20049;-72
2022/04/21 03:26:36;;;;;;;8.73;7.68;;;8.60;99.90;;;;;;5015071;28;20033;-73
2022/04/21 03:29:02;;;;;;;10.50;7.88;;;8.60;99.90;;;;;;5014644;28;20498;-72
2022/04/21 03:31:27;;;;;;;10.10;7.63;;;8.60;99.90;;;;;;5015147;28;20504;-72
2022/04/21 03:33:54;;;;;;;10.00;6.28;;;8.60;99.90;;;;;;5013979;28;20049;-72
2022/04/21 03:36:20;;;;;;;11.55;7.68;;;8.60;99.90;;;;;;5015013;28;20097;-72
2022/04/21 03:38:46;;;;;;;9.57;8.55;;;8.60;99.90;;;;;;5015362;28;20386;-71
2022/04/21 03:41:12;;;;;;;10.05;7.32;;;8.60;99.90;;;;;;5013396;28;20026;-73
2022/04/21 03:43:37;;;;;;;9.00;7.32;;;8.50;99.90;;;;;;5015825;28;20036;-71
2022/04/21 03:46:03;;;;;;;7.97;7.15;;;8.50;99.90;;;;;;5014677;28;20433;-71
2022/04/21 03:48:29;;;;;;;9.30;7.13;;;8.50;99.90;;;;;;5014138;28;20044;-72
2022/04/21 03:50:55;;;;;;;9.68;7.10;;;8.60;99.90;;;;;;5014512;28;20041;-72
2022/04/21 03:53:21;;;;;;;10.48;7.32;;;8.60;99.90;;;;;;5014914;28;20033;-71
2022/04/21 03:55:47;;;;;;;9.73;7.55;;;8.60;99.90;;;;;;5014065;28;20141;-72
2022/04/21 03:58:12;;;;;;;9.02;8.13;;;8.50;99.90;;;;;;5014647;28;20040;-72
2022/04/21 04:00:38;;;;;;;7.68;6.68;;;8.50;99.90;;;;;;5014653;28;20026;-72
2022/04/21 04:03:04;;;;;;;9.40;6.85;;;8.50;99.90;;;;;;5013625;28;20394;-72
2022/04/21 04:05:29;;;;;;;10.63;7.50;;;8.50;99.90;;;;;;5014402;28;20091;-72
2022/04/21 04:10:51;;;;;;;15.93;7.57;;;8.60;99.90;;;;;;5013794;28;20557;-72
2022/04/21 04:13:16;;;;;;;9.70;7.35;;;8.50;99.90;;;;;;5014398;28;20026;-72
2022/04/21 04:15:47;;;;;;;12.98;6.88;;;8.50;99.90;;;;;;5014322;28;20088;-72
2022/04/21 04:18:12;;;;;;;;;;;8.50;99.90;;;;;;5013978;28;20095;-71
2022/04/21 04:20:41;;;;;;;9.65;7.10;;;8.50;99.90;;;;;;5014478;28;19909;-73
2022/04/21 04:23:06;;;;;;;9.70;7.03;;;8.40;99.90;;;;;;5013087;28;20022;-73
2022/04/21 04:25:32;;;;;;;9.23;7.32;;;8.40;99.90;;;;;;5013961;28;20030;-72
2022/04/21 04:27:58;;;;;;;9.73;7.20;;;8.50;99.90;;;;;;5013646;28;20022;-73
2022/04/21 04:30:24;;;;;;;9.07;7.10;;;8.50;99.90;;;;;;5014954;28;20573;-74
2022/04/21 04:32:49;;;;;;;12.15;8.38;;;8.50;99.90;;;;;;5016568;28;20049;-72
2022/04/21 04:35:15;;;;;;;8.68;7.78;;;8.50;99.90;;;;;;5013939;28;20448;-72
2022/04/21 04:37:40;;;;;;;8.73;7.05;;;8.40;99.90;;;;;;5013180;28;20044;-72
2022/04/21 04:40:06;;;;;;;7.45;6.43;;;8.40;99.90;;;;;;5013625;28;20448;-72
2022/04/21 04:42:32;;;;;;;8.00;6.78;;;8.40;99.90;;;;;;5013721;28;20092;-73
2022/04/21 04:47:42;;;;;;;12.05;6.72;;;8.50;99.90;;;;;;5013777;28;20083;-72
2022/04/21 04:50:10;;;;;;;10.63;7.70;;;8.40;99.90;;;;;;5013522;28;20030;-72
2022/04/21 04:52:37;;;;;;;9.93;7.57;;;8.40;99.90;;;;;;5013011;28;20053;-72
2022/04/21 04:55:03;;;;;;;9.77;6.82;;;8.40;99.90;;;;;;5013234;28;20045;-72
2022/04/21 04:57:28;;;;;;;8.32;7.38;;;8.40;99.90;;;;;;5013432;28;20125;-72
2022/04/21 04:59:54;;;;;;;11.10;6.95;;;8.40;99.90;;;;;;5012483;28;20136;-72
2022/04/21 05:02:20;;;;;;;9.73;7.35;;;8.40;99.90;;;;;;5013550;28;20033;-72
2022/04/21 05:04:47;;;;;;;19.08;8.98;;;8.40;99.90;;;;;;5013541;28;20095;-73
2022/04/21 05:07:13;;;;;;;10.18;7.47;;;8.40;99.90;;;;;;5012758;28;20041;-73
2022/04/21 05:09:40;;;;;;;8.98;7.22;;;8.40;99.90;;;;;;5013141;28;20037;-73
2022/04/21 05:12:06;;;;;;;7.53;6.82;;;8.50;99.90;;;;;;5012901;28;20033;-73
2022/04/21 05:14:31;;;;;;;8.15;6.80;;;8.50;99.90;;;;;;5013136;28;20029;-73
2022/04/21 05:16:57;;;;;;;7.50;6.80;;;8.50;99.90;;;;;;5012937;28;20481;-73
2022/04/21 05:19:23;;;;;;;9.73;6.85;;;8.50;99.90;;;;;;5012519;28;20041;-73
2022/04/21 05:21:49;;;;;;;9.52;7.25;;;8.50;99.90;;;;;;5012828;28;20363;-74
2022/04/21 05:24:16;;;;;;;11.32;6.70;;;8.60;99.90;;;;;;5013020;28;20104;-73
2022/04/21 05:26:43;;;;;;;8.18;6.60;;;8.60;99.90;;;;;;5012216;28;20081;-73
2022/04/21 05:32:00;;;;;;;10.57;7.40;;;8.70;99.90;;;;;;5012963;28;20095;-73
2022/04/21 05:34:27;;;;;;;9.70;8.52;;;8.80;99.90;;;;;;5012027;28;20429;-73
2022/04/21 05:36:54;;;;;;;9.95;7.22;;;8.80;99.90;;;;;;5012557;28;20048;-73
2022/04/21 05:39:20;;;;;;;13.88;7.55;;;8.90;99.90;;;;;;5012597;28;20528;-72
2022/04/21 05:41:47;;;;;;;8.90;7.32;;;8.90;99.90;;;;;;5012044;28;20474;-73
2022/04/21 05:44:13;;;;;;;8.00;7.20;;;9.00;99.90;;;;;;5012881;28;20072;-73
2022/04/21 05:46:40;;;;;;;9.60;7.10;;;9.10;99.90;;;;;;5012601;28;20474;-73
2022/04/21 05:49:06;;;;;;;9.93;7.22;;;9.10;99.90;;;;;;5011618;28;20033;-73
2022/04/21 05:51:31;;;;;;;9.50;7.72;;;9.20;99.90;;;;;;5012624;28;20045;-73
2022/04/21 05:53:58;;;;;;;12.48;7.18;;;9.30;99.90;;;;;;5012273;28;20026;-73
2022/04/21 05:56:25;;;;;;;11.45;7.55;;;9.30;99.90;;;;;;5011797;28;20120;-73
2022/04/21 05:58:51;;;;;;;8.30;7.18;;;9.30;99.90;;;;;;5012997;28;20025;-72
2022/04/21 06:01:16;;;;;;;8.55;7.15;;;9.40;99.90;;;;;;5013051;28;20076;-73
2022/04/21 06:03:42;;;;;;;8.43;7.55;;;9.50;99.90;;;;;;5011444;28;20034;-73
2022/04/21 06:06:09;;;;;;;7.15;6.45;;;9.50;99.90;;;;;;5012657;28;20026;-72
2022/04/21 06:08:36;;;;;;;8.27;6.63;;;9.50;99.90;;;;;;5011592;28;20076;-73
2022/04/21 06:11:02;;;;;;;10.73;7.15;;;9.50;99.90;;;;;;5012136;28;20370;-72
2022/04/21 06:13:27;;;;;;;8.60;7.70;;;9.50;99.90;;;;;;5012491;28;20098;-73
2022/04/21 06:15:54;;;;;;;10.00;6.82;;;9.50;99.90;;;;;;5011395;28;20053;-73
2022/04/21 06:18:20;;;;;;;10.15;7.47;;;9.60;99.90;;;;;;5012241;28;20034;-73
2022/04/21 06:20:46;;;;;;;8.70;6.60;;;9.60;99.90;;;;;;5012319;28;20431;-73
2022/04/21 06:23:13;;;;;;;9.00;7.47;;;9.70;99.90;;;;;;5011165;28;20033;-73
2022/04/21 06:25:38;;;;;;;8.02;7.22;;;9.70;99.90;;;;;;5012425;28;20030;-73
2022/04/21 06:28:04;;;;;;;8.75;7.88;;;9.70;99.90;;;;;;5011866;28;20076;-73
2022/04/21 06:30:31;;;;;;;9.38;7.25;;;9.80;99.90;;;;;;5011503;28;20028;-72
2022/04/21 06:32:58;;;;;;;8.88;7.90;;;9.80;99.90;;;;;;5011925;28;20034;-72
2022/04/21 06:35:25;;;;;;;12.10;6.90;;;9.80;99.90;;;;;;5012080;28;20024;-73
2022/04/21 06:37:51;;;;;;;7.38;6.55;;;9.80;99.90;;;;;;5011483;28;20038;-72
2022/04/21 06:40:16;;;;;;;12.30;7.53;;;9.80;99.90;;;;;;5012450;28;20026;-73
2022/04/21 06:42:42;;;;;;;8.82;7.35;;;9.90;99.90;;;;;;5011999;28;20033;-73
2022/04/21 06:48:02;;;;;;;14.25;7.55;;;9.90;99.90;;;;;;5011671;28;20037;-72
2022/04/21 06:50:28;;;;;;;8.23;7.43;;;10.10;99.90;;;;;;5012228;28;20085;-73
2022/04/21 06:52:54;;;;;;;8.25;6.97;;;10.10;99.90;;;;;;5011179;28;20038;-73
2022/04/21 06:55:19;;;;;;;7.88;7.07;;;10.10;99.90;;;;;;5011816;28;20512;-73
2022/04/21 06:57:45;;;;;;;8.02;7.32;;;10.30;99.90;;;;;;5011211;28;20069;-73
2022/04/21 07:00:11;;;;;;;7.25;6.35;;;10.40;99.90;;;;;;5011520;28;20026;-73
2022/04/21 07:02:38;;;;;;;9.68;7.25;;;10.50;99.90;;;;;;5011769;28;20133;-73
2022/04/21 07:05:10;;;;;;;14.70;7.40;;;10.60;99.90;;;;;;5011053;28;20029;-73
2022/04/21 07:07:36;;;;;;;7.43;6.72;;;10.70;99.90;;;;;;5011921;28;20037;-73
2022/04/21 07:10:02;;;;;;;10.75;7.65;;;10.80;99.90;;;;;;5011537;28;20026;-73
2022/04/21 07:12:31;;;;;;;7.10;6.30;;;10.80;99.90;;;;;;5011013;28;20080;-73
2022/04/21 07:14:58;;;;;;;7.00;6.30;;;10.90;99.90;;;;;;5011468;28;20038;-73
2022/04/21 07:17:24;;;;;;;10.27;7.30;;;11.00;99.90;;;;;;5014390;28;20129;-73
2022/04/21 07:19:49;;;;;;;10.55;6.60;;;11.10;99.90;;;;;;5014296;28;20026;-73
2022/04/21 07:22:15;;;;;;;7.90;6.78;;;11.10;99.90;;;;;;5015182;28;20037;-72
2022/04/21 07:24:41;;;;;;;9.75;7.15;;;11.20;99.90;;;;;;5015260;28;20033;-72
2022/04/21 07:27:06;;;;;;;8.43;6.60;;;11.20;99.90;;;;;;5014163;28;20022;-73
2022/04/21 07:29:32;;;;;;;8.00;6.55;;;11.30;99.90;;;;;;5015089;28;20117;-73
2022/04/21 07:31:57;;;;;;;12.07;7.10;;;11.30;99.90;;;;;;5014699;28;20121;-73
2022/04/21 07:34:23;;;;;;;10.05;6.78;;;11.30;99.90;;;;;;5014652;28;20030;-72
2022/04/21 07:36:49;;;;;;;9.77;6.90;;;11.50;99.90;;;;;;5014703;28;20406;-73
2022/04/21 07:39:15;;;;;;;6.90;6.25;;;11.50;99.90;;;;;;5015067;28;20025;-73
2022/04/21 07:41:41;;;;;;;6.22;5.45;;;11.60;99.90;;;;;;5014008;28;20030;-73
2022/04/21 07:44:07;;;;;;;9.73;6.13;;;11.60;99.90;;;;;;5014594;28;20033;-73
2022/04/21 07:46:33;;;;;;;10.38;6.45;;;11.70;99.90;;;;;;5014621;28;20029;-73
2022/04/21 07:51:42;;;;;;;11.68;6.88;;;11.80;99.90;;;;;;5014959;28;20080;-73
2022/04/21 07:54:08;;;;;;;6.43;5.45;;;11.90;99.90;;;;;;5013705;28;20026;-73
2022/04/21 07:56:34;;;;;;;6.25;5.65;;;12.00;99.90;;;;;;5014423;28;20103;-72
2022/04/21 07:59:00;;;;;;;9.30;5.93;;;12.00;99.90;;;;;;5014261;28;20486;-72
2022/04/21 08:01:26;;;;;;;7.22;5.97;;;12.10;99.90;;;;;;5013965;28;20064;-73
2022/04/21 08:03:51;;;;;;;6.50;5.90;;;12.20;99.90;;;;;;5014370;28;20389;-73
2022/04/21 08:06:17;;;;;;;7.18;6.32;;;12.30;99.90;;;;;;5014642;28;20509;-73
2022/04/21 08:08:43;;;;;;;9.02;5.57;;;12.40;99.90;;;;;;5014021;28;20025;-74
2022/04/21 08:11:08;;;;;;;10.30;6.25;;;12.50;99.90;;;;;;5014431;28;20116;-72
2022/04/21 08:13:34;;;;;;;11.38;5.65;;;12.60;99.90;;;;;;5015170;28;20057;-73
2022/04/21 08:16:00;;;;;;;5.80;5.20;;;12.70;99.90;;;;;;5012428;28;20034;-72
2022/04/21 08:18:26;;;;;;;6.18;5.65;;;12.80;99.90;;;;;;5014209;28;20478;-73
2022/04/21 08:20:58;;;;;;;6.65;5.95;;;12.80;99.90;;;;;;5013841;28;20530;-73
2022/04/21 08:23:25;;;;;;;8.43;5.60;;;12.80;99.90;;;;;;5013418;28;20036;-72
2022/04/21 08:34:04;;;;;;;5.88;5.20;;;13.30;99.90;;;;;;5013541;28;20398;-72
2022/04/21 08:36:29;;;;;;;5.32;4.85;;;13.30;99.90;;;;;;5012867;28;20018;-72
2022/04/21 08:38:55;;;;;;;6.00;4.80;;;13.40;99.90;;;;;;5013773;28;20026;-72
2022/04/21 08:41:26;;;;;;;6.03;5.00;;;13.50;99.80;;;;;;5013910;28;20096;-72
2022/04/21 08:43:54;;;;;;;6.72;4.88;;;13.50;99.90;;;;;;5012833;28;20053;-72
2022/04/21 08:46:25;;;;;;;5.78;4.95;;;13.60;98.90;;;;;;5013624;28;20044;-72
2022/04/21 08:48:51;;;;;;;7.03;4.60;;;13.60;99.40;;;;;;5013295;28;20034;-72
2022/04/21 08:51:21;;;;;;;11.63;4.80;;;13.70;99.40;;;;;;5012801;28;20022;-72
2022/04/21 08:53:48;;;;;;;8.20;4.68;;;13.70;99.00;;;;;;5013671;28;20038;-72
2022/04/21 08:56:15;;;;;;;4.82;4.30;;;13.90;98.90;;;;;;5013365;28;20084;-72
2022/04/21 08:58:40;;;;;;;4.75;3.85;;;13.90;99.30;;;;;;5027889;28;20029;-73
2022/04/21 09:01:07;;;;;;;7.70;4.00;;;14.00;99.00;;;;;;5013043;28;20029;-72
2022/04/21 09:03:35;;;;;;;10.50;4.45;;;14.00;98.50;;;;;;5013169;28;20109;-72
2022/04/21 09:06:00;;;;;;;4.93;4.45;;;14.10;98.50;;;;;;5012576;28;20034;-72
2022/04/21 09:08:26;;;;;;;5.00;4.18;;;14.20;98.80;;;;;;5014098;28;20351;-72
2022/04/21 09:11:10;;;;;;;4.30;3.90;;;14.20;98.60;;;;;;5013084;28;20486;-73
2022/04/21 09:13:40;;;;;;;9.10;4.68;;;14.20;98.10;;;;;;5012581;28;20032;-72
2022/04/21 09:16:11;;;;;;;4.78;4.28;;;14.30;98.10;;;;;;5012781;28;20032;-73
2022/04/21 09:18:37;;;;;;;5.20;4.05;;;14.30;98.00;;;;;;5012493;28;20073;-73
2022/04/21 09:21:15;;;;;;;5.60;4.80;;;14.40;98.00;;;;;;5012911;28;20018;-73
2022/04/21 09:23:41;;;;;;;5.00;3.92;;;14.40;98.00;;;;;;5012978;28;20040;-72
2022/04/21 09:26:13;;;;;;;4.25;3.85;;;14.50;96.80;;;;;;5011914;28;20633;-72
2022/04/21 09:28:39;;;;;;;6.25;3.60;;;14.60;96.90;;;;;;5012806;28;20022;-74
2022/04/21 09:31:09;;;;;;;4.97;3.65;;;14.60;96.30;;;;;;5012788;28;20137;-73
2022/04/21 09:33:44;;;;;;;5.88;3.60;;;14.70;96.20;;;;;;5012097;28;20104;-72
2022/04/21 09:36:10;;;;;;;4.05;2.95;;;14.70;95.60;;;;;;5012994;28;20022;-72
2022/04/21 09:38:37;;;;;;;5.63;2.75;;;14.70;93.50;;;;;;5012380;28;20041;-72
2022/04/21 09:41:07;;;;;;;5.43;3.28;;;14.80;93.30;;;;;;5011707;28;20025;-72
2022/04/21 09:43:35;;;;;;;4.28;3.47;;;14.90;94.00;;;;;;5012949;28;20093;-72
2022/04/21 09:46:19;;;;;;;4.38;3.97;;;14.90;94.10;;;;;;5012676;28;20034;-71
2022/04/21 09:48:46;;;;;;;4.10;3.70;;;15.00;93.90;;;;;;5012157;28;20045;-73
2022/04/21 09:51:14;;;;;;;4.47;4.07;;;15.00;94.20;;;;;;5012438;28;20472;-73
2022/04/21 09:54:02;;;;;;;4.25;3.80;;;15.10;94.40;;;;;;5012214;28;20105;-73
2022/04/21 09:56:34;;;;;;;19.77;3.85;;;15.30;92.60;;;;;;5012362;28;20060;-72
2022/04/21 09:59:07;;;;;;;2.47;2.13;;;15.30;90.80;;;;;;5011095;28;20062;-73
2022/04/21 10:01:36;;;;;;;2.17;2.00;;;15.40;89.00;;;;;;5011744;28;20053;-73
2022/04/21 10:04:05;;;;;;;3.13;2.17;;;15.40;86.90;;;;;;5012316;28;20030;-73
2022/04/21 10:06:31;;;;;;;2.72;2.53;;;15.40;86.90;;;;;;5012672;28;20109;-73
2022/04/21 10:08:58;;;;;;;2.97;2.67;;;15.40;87.80;;;;;;5011714;28;20033;-72
2022/04/21 10:11:24;;;;;;;2.55;2.33;;;15.50;87.60;;;;;;5012458;28;20482;-73
2022/04/21 10:13:54;;;;;;;2.33;2.13;;;15.50;87.50;;;;;;5012299;28;20398;-73
2022/04/21 10:16:24;;;;;;;4.70;2.60;;;15.50;85.30;;;;;;5011738;28;20022;-72
2022/04/21 10:18:54;;;;;;;6.40;2.40;;;15.60;85.90;;;;;;5012344;28;20052;-72
2022/04/21 10:21:26;;;;;;;8.80;2.63;;;15.50;86.50;;;;;;5012684;28;20119;-72
2022/04/21 10:23:52;;;;;;;2.97;2.67;;;15.50;84.00;;;;;;5011688;28;20137;-72
2022/04/21 10:26:38;;;;;;;4.03;2.30;;;15.60;83.30;;;;;;5013489;28;20030;-72
2022/04/21 10:29:15;;;;;;;3.58;2.78;;;15.70;83.20;;;;;;5012105;28;20044;-72
2022/04/21 10:32:03;;;;;;;4.75;2.40;;;15.70;83.70;;;;;;5012245;28;20131;-72
2022/04/21 10:34:42;;;;;;;2.45;2.10;;;15.80;84.00;;;;;;5012322;28;20466;-72
2022/04/21 10:37:17;;;;;;;2.50;2.30;;;15.80;83.50;;;;;;5011038;28;20563;-72
2022/04/21 10:40:03;;;;;;;6.55;2.72;;;15.90;83.40;;;;;;5012534;28;20030;-71
2022/04/21 10:42:28;;;;;;;3.88;2.70;;;15.90;83.90;;;;;;5015214;28;20033;-73
2022/04/21 10:44:55;;;;;;;6.72;2.80;;;16.00;80.30;;;;;;5011075;28;20026;-72
2022/04/21 10:47:37;;;;;;;3.97;2.55;;;15.90;78.70;;;;;;5012090;28;20053;-72
2022/04/21 10:50:16;;;;;;;3.15;2.40;;;16.00;80.60;;;;;;5012314;28;20421;-72
2022/04/21 10:58:35;;;;;;;2.95;2.38;;;16.20;79.60;;;;;;5015017;28;20150;-72
2022/04/21 11:01:11;;;;;;;3.05;2.75;;;16.30;79.20;;;;;;5015363;28;20037;-72
2022/04/21 11:03:38;;;;;;;2.65;2.30;;;16.30;78.50;;;;;;5015567;28;20084;-73
2022/04/21 11:06:14;;;;;;;2.65;2.22;;;16.40;78.00;;;;;;5014600;28;20405;-72
2022/04/21 11:08:40;;;;;;;11.20;3.90;;;16.50;77.40;;;;;;5015322;28;20018;-72
2022/04/21 11:11:06;;;;;;;3.90;2.55;;;16.50;75.00;;;;;;5014540;28;20041;-72
2022/04/21 11:13:52;;;;;;;2.65;2.08;;;16.50;77.00;;;;;;5015460;28;20426;-72
2022/04/21 11:16:42;;;;;;;2.90;2.60;;;16.50;76.60;;;;;;5015405;28;20050;-72
2022/04/21 11:19:30;;;;;;;2.67;2.20;;;16.50;73.20;;;;;;5014218;28;20038;-72
2022/04/21 11:21:56;;;;;;;3.85;2.58;;;16.60;74.00;;;;;;5014983;28;20064;-73
2022/04/21 11:24:22;;;;;;;2.70;2.30;;;16.60;71.80;;;;;;5015195;28;20045;-72
2022/04/21 11:26:54;;;;;;;4.82;2.70;;;16.60;74.00;;;;;;5014049;28;20113;-72
2022/04/21 11:29:19;;;;;;;2.83;2.60;;;16.70;75.20;;;;;;5015022;28;20033;-72
2022/04/21 11:31:45;;;;;;;4.13;2.47;;;16.80;74.30;;;;;;5015251;28;20021;-72
2022/04/21 11:34:10;;;;;;;6.45;2.80;;;16.90;73.00;;;;;;5013873;28;20503;-72
2022/04/21 11:36:40;;;;;;;2.28;2.08;;;16.90;73.20;;;;;;5014933;28;20068;-72
2022/04/21 11:39:07;;;;;;;2.30;2.00;;;17.00;74.30;;;;;;5014134;28;20065;-71
2022/04/21 11:41:33;;;;;;;2.40;2.13;;;17.00;72.60;;;;;;5014694;28;20033;-73
2022/04/21 11:44:00;;;;;;;5.45;1.80;;;17.10;72.10;;;;;;5014633;28;20022;-73
2022/04/21 11:46:26;;;;;;;3.83;1.65;;;17.20;70.30;;;;;;5014471;28;20022;-72
2022/04/21 11:49:00;;;;;;;2.03;1.92;;;17.20;69.10;;;;;;5014794;28;20030;-73
2022/04/21 11:51:26;;;;;;;1.90;1.80;;;17.30;68.80;;;;;;5014953;28;20172;-73
2022/04/21 11:53:52;;;;;;;5.72;2.00;;;17.30;69.20;;;;;;5013671;28;20481;-72
2022/04/21 11:56:21;;;;;;;7.10;1.75;;;17.30;69.50;;;;;;5014626;28;20046;-73
2022/04/21 11:58:46;;;;;;;2.17;1.80;;;17.40;68.60;;;;;;5014747;28;20135;-73
2022/04/21 12:06:58;;;;;;;2.90;1.60;;;17.50;67.70;;;;;;5014436;28;20037;-73
2022/04/21 12:09:25;;;;;;;2.25;2.05;;;17.60;67.70;;;;;;5013833;28;20375;-73
2022/04/21 12:11:58;;;;;;;2.30;2.10;;;17.70;66.00;;;;;;5015540;28;20432;-73
2022/04/21 12:14:24;;;;;;;4.43;2.40;;;17.70;66.40;;;;;;5015188;28;20493;-73
2022/04/21 12:16:54;;;;;;;2.35;2.15;;;17.70;64.70;;;;;;5014026;28;20528;-73
2022/04/21 12:19:39;;;;;;;5.33;2.83;;;17.70;64.90;;;;;;5014340;28;20034;-73
2022/04/21 12:22:16;;;;;;;3.03;2.25;;;17.70;64.30;;;;;;5013405;28;20410;-73
2022/04/21 12:24:54;;;;;;;3.90;2.15;;;17.70;65.70;;;;;;5014620;28;20026;-73
2022/04/21 12:27:25;;;;;;;4.72;2.70;;;17.70;65.80;;;;;;5014522;28;20403;-73
2022/04/21 12:29:56;;;;;;;2.40;2.20;;;17.80;65.80;;;;;;5013032;28;20442;-73
2022/04/21 12:32:30;;;;;;;4.30;3.20;;;17.90;66.90;;;;;;5014293;28;20022;-73
2022/04/21 12:34:58;;;;;;;2.65;2.40;;;18.00;65.40;;;;;;5014057;28;20036;-73
2022/04/21 12:37:31;;;;;;;3.05;2.63;;;18.00;67.60;;;;;;5013521;28;20049;-73
2022/04/21 12:39:59;;;;;;;3.47;2.50;;;18.10;65.90;;;;;;5013715;28;20018;-73
2022/04/21 12:42:25;;;;;;;3.05;2.53;;;18.20;66.10;;;;;;5013917;28;20113;-73
2022/04/21 12:44:52;;;;;;;2.53;1.95;;;18.20;65.30;;;;;;5013860;28;20045;-73
2022/04/21 12:47:19;;;;;;;2.92;2.60;;;18.30;64.90;;;;;;5013929;28;20087;-73
2022/04/21 12:49:50;;;;;;;2.67;2.47;;;18.40;64.90;;;;;;5012950;28;20609;-72
2022/04/21 12:52:26;;;;;;;2.97;2.45;;;18.40;64.60;;;;;;5013727;28;20029;-73
2022/04/21 12:54:51;;;;;;;2.40;2.20;;;18.40;64.10;;;;;;5013132;28;20042;-73
2022/04/21 12:57:17;;;;;;;5.20;3.13;;;18.60;64.60;;;;;;5013024;28;20041;-73
2022/04/21 12:59:44;;;;;;;3.60;3.30;;;18.50;61.80;;;;;;5013684;28;20026;-72
2022/04/21 13:02:10;;;;;;;3.40;3.10;;;18.50;62.00;;;;;;5013286;28;20076;-73
2022/04/21 13:04:36;;;;;;;2.60;2.20;;;18.50;63.30;;;;;;5012799;28;20131;-73
2022/04/21 13:07:03;;;;;;;2.25;2.00;;;18.50;64.30;;;;;;5013141;28;20021;-73
2022/04/21 13:09:28;;;;;;;4.10;2.30;;;18.60;63.50;;;;;;5012099;28;20034;-73
2022/04/21 13:11:54;;;;;;;3.13;2.42;;;18.70;62.60;;;;;;5012529;28;20040;-73
2022/04/21 13:14:19;;;;;;;2.47;2.28;;;18.90;63.10;;;;;;5012317;28;20026;-73
2022/04/21 13:16:45;;;;;;;5.63;2.40;;;19.00;62.70;;;;;;5013247;28;20101;-73
2022/04/21 13:19:10;;;;;;;7.00;2.20;;;19.10;62.40;;;;;;5012350;28;20022;-73
2022/04/21 13:24:25;;;;;;;2.95;2.20;;;19.30;61.70;;;;;;5013170;28;20577;-73
2022/04/21 13:26:52;;;;;;;2.38;2.17;;;19.30;61.70;;;;;;5012232;28;20038;-73
2022/04/21 13:29:18;;;;;;;5.07;2.40;;;19.40;62.60;;;;;;5013097;28;20113;-73
2022/04/21 13:34:28;;;;;;;6.65;2.53;;;19.60;61.40;;;;;;5012927;28;20036;-72
2022/04/21 13:36:54;;;;;;;2.65;2.45;;;19.60;60.50;;;;;;5012687;28;20034;-73
2022/04/21 13:39:20;;;;;;;3.20;2.90;;;19.60;58.20;;;;;;5012203;28;20393;-73
2022/04/21 13:41:49;;;;;;;2.42;2.22;;;19.60;59.40;;;;;;5012787;28;20017;-72
2022/04/21 13:44:15;;;;;;;5.78;2.70;;;19.50;61.00;;;;;;5014537;28;20117;-73
2022/04/21 13:46:41;;;;;;;2.70;2.05;;;19.70;59.70;;;;;;5011860;28;20036;-72
2022/04/21 13:49:07;;;;;;;2.10;1.90;;;19.80;58.50;;;;;;5012401;28;20404;-73